sensor_id;sensor_type;location;lat;lon;timestamp;temperature;humidity
32322;DHT22;61553;48.994;8.940;2023-05-07T00:01:35;11.20;99.90
32322;DHT22;61553;48.994;8.940;2023-05-07T00:04:01;11.20;99.90
32322;DHT22;61553;48.994;8.940;2023-05-07T00:06:27;11.20;99.90
32322;DHT22;61553;48.994;8.940;2023-05-07T00:08:54;11.20;99.90
32322;DHT22;61553;48.994;8.940;2023-05-07T00:11:20;11.30;99.90
32322;DHT22;61553;48.994;8.940;2023-05-07T00:13:46;11.40;99.90
32322;DHT22;61553;48.994;8.940;2023-05-07T00:16:12;11.50;99.90
32322;DHT22;61553;48.994;8.940;2023-05-07T00:18:37;11.50;99.90
32322;DHT22;61553;48.994;8.940;2023-05-07T00:21:03;11.60;99.90
32322;DHT22;61553;48.994;8.940;2023-05-07T00:23:29;11.60;99.90
32322;DHT22;61553;48.994;8.940;2023-05-07T00:25:54;11.60;99.90
32322;DHT22;61553;48.994;8.940;2023-05-07T00:28:20;11.70;99.90
32322;DHT22;61553;48.994;8.940;2023-05-07T00:30:45;11.70;99.90
32322;DHT22;61553;48.994;8.940;2023-05-07T00:33:11;11.70;99.90
32322;DHT22;61553;48.994;8.940;2023-05-07T00:35:37;11.70;99.90
32322;DHT22;61553;48.994;8.940;2023-05-07T00:38:02;11.70;99.90
32322;DHT22;61553;48.994;8.940;2023-05-07T00:40:28;11.70;99.90
32322;DHT22;61553;48.994;8.940;2023-05-07T00:42:54;11.60;99.90
32322;DHT22;61553;48.994;8.940;2023-05-07T00:45:28;11.60;99.90
32322;DHT22;61553;48.994;8.940;2023-05-07T00:48:01;11.50;99.90
32322;DHT22;61553;48.994;8.940;2023-05-07T00:50:28;11.40;99.90
32322;DHT22;61553;48.994;8.940;2023-05-07T00:52:54;11.40;99.90
32322;DHT22;61553;48.994;8.940;2023-05-07T00:55:21;11.30;99.90
32322;DHT22;61553;48.994;8.940;2023-05-07T00:57:46;11.30;99.90
32322;DHT22;61553;48.994;8.940;2023-05-07T01:00:12;11.30;99.90
32322;DHT22;61553;48.994;8.940;2023-05-07T01:02:41;11.30;99.90
32322;DHT22;61553;48.994;8.940;2023-05-07T01:05:18;11.30;99.90
32322;DHT22;61553;48.994;8.940;2023-05-07T01:07:44;11.20;99.90
32322;DHT22;61553;48.994;8.940;2023-05-07T01:10:11;11.20;99.90
32322;DHT22;61553;48.994;8.940;2023-05-07T01:12:38;11.10;99.90
32322;DHT22;61553;48.994;8.940;2023-05-07T01:15:06;11.20;99.90
32322;DHT22;61553;48.994;8.940;2023-05-07T01:17:41;11.20;99.90
32322;DHT22;61553;48.994;8.940;2023-05-07T01:20:08;11.20;99.90
32322;DHT22;61553;48.994;8.940;2023-05-07T01:22:36;11.20;99.90
32322;DHT22;61553;48.994;8.940;2023-05-07T01:25:03;11.20;99.90
32322;DHT22;61553;48.994;8.940;2023-05-07T01:27:29;11.20;99.90
32322;DHT22;61553;48.994;8.940;2023-05-07T01:29:55;11.20;99.90
32322;DHT22;61553;48.994;8.940;2023-05-07T01:32:29;11.20;99.90
32322;DHT22;61553;48.994;8.940;2023-05-07T01:34:57;11.20;99.90
32322;DHT22;61553;48.994;8.940;2023-05-07T01:37:25;11.20;99.90
32322;DHT22;61553;48.994;8.940;2023-05-07T01:39:52;11.20;99.90
32322;DHT22;61553;48.994;8.940;2023-05-07T01:42:17;11.10;99.90
32322;DHT22;61553;48.994;8.940;2023-05-07T01:44:43;11.10;99.90
32322;DHT22;61553;48.994;8.940;2023-05-07T01:47:09;11.10;99.90
32322;DHT22;61553;48.994;8.940;2023-05-07T01:49:35;11.10;99.90
32322;DHT22;61553;48.994;8.940;2023-05-07T01:52:01;11.00;99.90
32322;DHT22;61553;48.994;8.940;2023-05-07T01:54:27;11.00;99.90
32322;DHT22;61553;48.994;8.940;2023-05-07T01:56:53;11.00;99.90
32322;DHT22;61553;48.994;8.940;2023-05-07T01:59:19;11.10;99.90
32322;DHT22;61553;48.994;8.940;2023-05-07T02:01:44;11.10;99.90
32322;DHT22;61553;48.994;8.940;2023-05-07T02:04:10;11.00;99.90
32322;DHT22;61553;48.994;8.940;2023-05-07T02:06:36;11.00;99.90
32322;DHT22;61553;48.994;8.940;2023-05-07T02:09:02;11.10;99.90
32322;DHT22;61553;48.994;8.940;2023-05-07T02:11:27;11.10;99.90
32322;DHT22;61553;48.994;8.940;2023-05-07T02:13:53;11.10;99.90
32322;DHT22;61553;48.994;8.940;2023-05-07T02:16:18;11.10;99.90
32322;DHT22;61553;48.994;8.940;2023-05-07T02:18:45;11.10;99.90
32322;DHT22;61553;48.994;8.940;2023-05-07T02:21:10;11.10;99.90
32322;DHT22;61553;48.994;8.940;2023-05-07T02:23:36;11.10;99.90
32322;DHT22;61553;48.994;8.940;2023-05-07T02:26:03;11.10;99.90
32322;DHT22;61553;48.994;8.940;2023-05-07T02:28:29;11.10;99.90
32322;DHT22;61553;48.994;8.940;2023-05-07T02:30:54;11.10;99.90
32322;DHT22;61553;48.994;8.940;2023-05-07T02:33:20;11.10;99.90
32322;DHT22;61553;48.994;8.940;2023-05-07T02:35:45;11.10;99.90
32322;DHT22;61553;48.994;8.940;2023-05-07T02:38:11;11.10;99.90
32322;DHT22;61553;48.994;8.940;2023-05-07T02:40:37;11.10;99.90
32322;DHT22;61553;48.994;8.940;2023-05-07T02:43:05;11.00;99.90
32322;DHT22;61553;48.994;8.940;2023-05-07T02:45:31;11.00;99.90
32322;DHT22;61553;48.994;8.940;2023-05-07T02:47:57;10.90;99.90
32322;DHT22;61553;48.994;8.940;2023-05-07T02:50:23;10.80;99.90
32322;DHT22;61553;48.994;8.940;2023-05-07T02:52:49;10.80;99.90
32322;DHT22;61553;48.994;8.940;2023-05-07T02:55:14;10.80;99.90
32322;DHT22;61553;48.994;8.940;2023-05-07T02:57:40;10.80;99.90
32322;DHT22;61553;48.994;8.940;2023-05-07T03:00:17;10.70;99.90
32322;DHT22;61553;48.994;8.940;2023-05-07T03:02:44;10.70;99.90
32322;DHT22;61553;48.994;8.940;2023-05-07T03:05:09;10.60;99.90
32322;DHT22;61553;48.994;8.940;2023-05-07T03:07:36;10.50;99.90
32322;DHT22;61553;48.994;8.940;2023-05-07T03:10:03;10.40;99.90
32322;DHT22;61553;48.994;8.940;2023-05-07T03:12:29;10.40;99.90
32322;DHT22;61553;48.994;8.940;2023-05-07T03:14:55;10.30;99.90
32322;DHT22;61553;48.994;8.940;2023-05-07T03:17:22;10.20;99.90
32322;DHT22;61553;48.994;8.940;2023-05-07T03:19:47;10.20;99.90
32322;DHT22;61553;48.994;8.940;2023-05-07T03:22:13;10.20;99.90
32322;DHT22;61553;48.994;8.940;2023-05-07T03:24:39;10.10;99.90
32322;DHT22;61553;48.994;8.940;2023-05-07T03:27:05;10.10;99.90
32322;DHT22;61553;48.994;8.940;2023-05-07T03:29:30;10.10;99.90
32322;DHT22;61553;48.994;8.940;2023-05-07T03:31:56;10.00;99.90
32322;DHT22;61553;48.994;8.940;2023-05-07T03:34:22;10.00;99.90
32322;DHT22;61553;48.994;8.940;2023-05-07T03:36:48;9.90;99.90
32322;DHT22;61553;48.994;8.940;2023-05-07T03:39:14;10.00;99.90
32322;DHT22;61553;48.994;8.940;2023-05-07T03:41:40;10.00;99.90
32322;DHT22;61553;48.994;8.940;2023-05-07T03:44:05;10.00;99.90
32322;DHT22;61553;48.994;8.940;2023-05-07T03:46:31;10.10;99.90
32322;DHT22;61553;48.994;8.940;2023-05-07T03:48:58;10.10;99.90
32322;DHT22;61553;48.994;8.940;2023-05-07T03:51:24;10.20;99.90
32322;DHT22;61553;48.994;8.940;2023-05-07T03:53:50;10.20;99.90
32322;DHT22;61553;48.994;8.940;2023-05-07T03:56:18;10.20;99.90
32322;DHT22;61553;48.994;8.940;2023-05-07T03:58:44;10.10;99.90
32322;DHT22;61553;48.994;8.940;2023-05-07T04:01:10;10.00;99.90
32322;DHT22;61553;48.994;8.940;2023-05-07T04:03:35;10.00;99.90
32322;DHT22;61553;48.994;8.940;2023-05-07T04:06:01;9.90;99.90
32322;DHT22;61553;48.994;8.940;2023-05-07T04:08:27;9.90;99.90
32322;DHT22;61553;48.994;8.940;2023-05-07T04:10:56;9.90;99.90
32322;DHT22;61553;48.994;8.940;2023-05-07T04:13:22;9.90;99.90
32322;DHT22;61553;48.994;8.940;2023-05-07T04:15:48;9.90;99.90
32322;DHT22;61553;48.994;8.940;2023-05-07T04:18:14;9.90;99.90
32322;DHT22;61553;48.994;8.940;2023-05-07T04:20:40;9.90;99.90
32322;DHT22;61553;48.994;8.940;2023-05-07T04:23:06;10.10;99.90
32322;DHT22;61553;48.994;8.940;2023-05-07T04:25:32;10.20;99.90
32322;DHT22;61553;48.994;8.940;2023-05-07T04:27:58;10.30;99.90
32322;DHT22;61553;48.994;8.940;2023-05-07T04:30:24;10.40;99.90
32322;DHT22;61553;48.994;8.940;2023-05-07T04:32:50;10.50;99.90
32322;DHT22;61553;48.994;8.940;2023-05-07T04:35:16;10.60;99.90
32322;DHT22;61553;48.994;8.940;2023-05-07T04:37:42;10.70;99.90
32322;DHT22;61553;48.994;8.940;2023-05-07T04:40:08;10.80;99.90
32322;DHT22;61553;48.994;8.940;2023-05-07T04:42:33;10.90;99.90
32322;DHT22;61553;48.994;8.940;2023-05-07T04:44:59;11.00;99.90
32322;DHT22;61553;48.994;8.940;2023-05-07T04:47:25;11.10;99.90
32322;DHT22;61553;48.994;8.940;2023-05-07T04:49:51;11.20;99.90
32322;DHT22;61553;48.994;8.940;2023-05-07T04:52:16;11.30;99.90
32322;DHT22;61553;48.994;8.940;2023-05-07T04:54:42;11.30;99.90
32322;DHT22;61553;48.994;8.940;2023-05-07T04:57:08;11.40;99.90
32322;DHT22;61553;48.994;8.940;2023-05-07T04:59:33;11.60;99.90
32322;DHT22;61553;48.994;8.940;2023-05-07T05:01:59;11.70;99.90
32322;DHT22;61553;48.994;8.940;2023-05-07T05:04:25;11.80;99.90
32322;DHT22;61553;48.994;8.940;2023-05-07T05:06:51;12.00;99.90
32322;DHT22;61553;48.994;8.940;2023-05-07T05:09:16;12.20;99.90
32322;DHT22;61553;48.994;8.940;2023-05-07T05:11:42;12.40;99.90
32322;DHT22;61553;48.994;8.940;2023-05-07T05:14:08;12.50;99.90
32322;DHT22;61553;48.994;8.940;2023-05-07T05:16:34;12.60;99.90
32322;DHT22;61553;48.994;8.940;2023-05-07T05:19:01;12.60;99.90
32322;DHT22;61553;48.994;8.940;2023-05-07T05:21:27;12.70;99.90
32322;DHT22;61553;48.994;8.940;2023-05-07T05:23:52;12.80;99.90
32322;DHT22;61553;48.994;8.940;2023-05-07T05:26:18;12.90;99.90
32322;DHT22;61553;48.994;8.940;2023-05-07T05:28:44;13.00;99.90
32322;DHT22;61553;48.994;8.940;2023-05-07T05:31:10;13.00;99.90
32322;DHT22;61553;48.994;8.940;2023-05-07T05:33:35;13.10;99.90
32322;DHT22;61553;48.994;8.940;2023-05-07T05:36:01;13.20;99.90
32322;DHT22;61553;48.994;8.940;2023-05-07T05:38:27;13.30;99.90
32322;DHT22;61553;48.994;8.940;2023-05-07T05:40:52;13.40;99.90
32322;DHT22;61553;48.994;8.940;2023-05-07T05:43:18;13.60;99.90
32322;DHT22;61553;48.994;8.940;2023-05-07T05:45:44;13.90;99.90
32322;DHT22;61553;48.994;8.940;2023-05-07T05:48:09;14.00;99.90
32322;DHT22;61553;48.994;8.940;2023-05-07T05:50:35;14.10;99.90
32322;DHT22;61553;48.994;8.940;2023-05-07T05:53:02;14.10;99.90
32322;DHT22;61553;48.994;8.940;2023-05-07T05:55:27;14.10;99.90
32322;DHT22;61553;48.994;8.940;2023-05-07T05:57:53;14.20;99.90
32322;DHT22;61553;48.994;8.940;2023-05-07T06:00:19;14.30;99.90
32322;DHT22;61553;48.994;8.940;2023-05-07T06:02:47;14.50;99.90
32322;DHT22;61553;48.994;8.940;2023-05-07T06:05:13;14.40;99.90
32322;DHT22;61553;48.994;8.940;2023-05-07T06:07:39;14.80;99.90
32322;DHT22;61553;48.994;8.940;2023-05-07T06:10:05;16.10;99.90
32322;DHT22;61553;48.994;8.940;2023-05-07T06:12:31;19.90;99.90
32322;DHT22;61553;48.994;8.940;2023-05-07T06:14:57;23.60;94.40
32322;DHT22;61553;48.994;8.940;2023-05-07T06:17:22;24.50;87.50
32322;DHT22;61553;48.994;8.940;2023-05-07T06:19:48;25.80;77.30
32322;DHT22;61553;48.994;8.940;2023-05-07T06:22:14;26.20;73.00
32322;DHT22;61553;48.994;8.940;2023-05-07T06:24:39;25.80;71.60
32322;DHT22;61553;48.994;8.940;2023-05-07T06:27:05;27.20;67.20
32322;DHT22;61553;48.994;8.940;2023-05-07T06:29:30;27.10;66.70
32322;DHT22;61553;48.994;8.940;2023-05-07T06:32:09;25.70;69.10
32322;DHT22;61553;48.994;8.940;2023-05-07T06:34:35;24.80;71.40
32322;DHT22;61553;48.994;8.940;2023-05-07T06:37:01;23.70;74.70
32322;DHT22;61553;48.994;8.940;2023-05-07T06:39:26;22.80;78.40
32322;DHT22;61553;48.994;8.940;2023-05-07T06:41:52;22.50;79.80
32322;DHT22;61553;48.994;8.940;2023-05-07T06:44:18;23.30;79.90
32322;DHT22;61553;48.994;8.940;2023-05-07T06:46:44;24.90;76.40
32322;DHT22;61553;48.994;8.940;2023-05-07T06:49:10;27.00;71.40
32322;DHT22;61553;48.994;8.940;2023-05-07T06:51:36;28.50;65.50
32322;DHT22;61553;48.994;8.940;2023-05-07T06:54:02;28.90;63.70
32322;DHT22;61553;48.994;8.940;2023-05-07T06:56:29;29.50;61.40
32322;DHT22;61553;48.994;8.940;2023-05-07T06:58:55;30.40;59.80
32322;DHT22;61553;48.994;8.940;2023-05-07T07:01:21;31.40;56.20
32322;DHT22;61553;48.994;8.940;2023-05-07T07:03:46;30.80;54.40
32322;DHT22;61553;48.994;8.940;2023-05-07T07:06:12;31.20;52.80
32322;DHT22;61553;48.994;8.940;2023-05-07T07:08:38;30.60;52.30
32322;DHT22;61553;48.994;8.940;2023-05-07T07:11:04;29.30;54.50
32322;DHT22;61553;48.994;8.940;2023-05-07T07:13:30;28.30;56.50
32322;DHT22;61553;48.994;8.940;2023-05-07T07:15:56;28.60;56.30
32322;DHT22;61553;48.994;8.940;2023-05-07T07:18:22;29.90;53.80
32322;DHT22;61553;48.994;8.940;2023-05-07T07:20:47;31.00;52.90
32322;DHT22;61553;48.994;8.940;2023-05-07T07:23:13;31.30;52.40
32322;DHT22;61553;48.994;8.940;2023-05-07T07:25:39;33.00;50.20
32322;DHT22;61553;48.994;8.940;2023-05-07T07:28:05;33.30;49.00
32322;DHT22;61553;48.994;8.940;2023-05-07T07:30:31;33.80;48.10
32322;DHT22;61553;48.994;8.940;2023-05-07T07:32:57;34.50;46.40
32322;DHT22;61553;48.994;8.940;2023-05-07T07:35:28;33.10;47.50
32322;DHT22;61553;48.994;8.940;2023-05-07T07:37:54;32.80;47.20
32322;DHT22;61553;48.994;8.940;2023-05-07T07:40:20;32.30;47.80
32322;DHT22;61553;48.994;8.940;2023-05-07T07:42:45;30.00;50.40
32322;DHT22;61553;48.994;8.940;2023-05-07T07:45:11;28.80;52.80
32322;DHT22;61553;48.994;8.940;2023-05-07T07:47:37;29.90;51.70
32322;DHT22;61553;48.994;8.940;2023-05-07T07:50:03;30.80;50.00
32322;DHT22;61553;48.994;8.940;2023-05-07T07:52:29;32.70;48.40
32322;DHT22;61553;48.994;8.940;2023-05-07T07:54:55;34.00;46.60
32322;DHT22;61553;48.994;8.940;2023-05-07T07:57:20;33.40;46.90
32322;DHT22;61553;48.994;8.940;2023-05-07T07:59:46;34.10;45.70
32322;DHT22;61553;48.994;8.940;2023-05-07T08:02:11;34.30;45.80
32322;DHT22;61553;48.994;8.940;2023-05-07T08:04:37;34.10;45.10
32322;DHT22;61553;48.994;8.940;2023-05-07T08:07:03;33.70;45.20
32322;DHT22;61553;48.994;8.940;2023-05-07T08:09:28;33.80;45.30
32322;DHT22;61553;48.994;8.940;2023-05-07T08:11:54;33.20;45.40
32322;DHT22;61553;48.994;8.940;2023-05-07T08:14:20;33.50;44.80
32322;DHT22;61553;48.994;8.940;2023-05-07T08:16:45;33.50;45.40
32322;DHT22;61553;48.994;8.940;2023-05-07T08:19:11;32.90;45.60
32322;DHT22;61553;48.994;8.940;2023-05-07T08:21:39;32.80;46.00
32322;DHT22;61553;48.994;8.940;2023-05-07T08:24:05;32.00;46.90
32322;DHT22;61553;48.994;8.940;2023-05-07T08:26:31;32.30;46.90
32322;DHT22;61553;48.994;8.940;2023-05-07T08:28:56;32.40;47.30
32322;DHT22;61553;48.994;8.940;2023-05-07T08:31:22;31.30;48.40
32322;DHT22;61553;48.994;8.940;2023-05-07T08:33:47;32.50;47.30
32322;DHT22;61553;48.994;8.940;2023-05-07T08:36:13;32.10;47.10
32322;DHT22;61553;48.994;8.940;2023-05-07T08:38:39;32.70;46.80
32322;DHT22;61553;48.994;8.940;2023-05-07T08:41:06;33.50;45.60
32322;DHT22;61553;48.994;8.940;2023-05-07T08:43:33;34.10;45.00
32322;DHT22;61553;48.994;8.940;2023-05-07T08:46:01;34.40;44.80
32322;DHT22;61553;48.994;8.940;2023-05-07T08:48:29;35.50;44.10
32322;DHT22;61553;48.994;8.940;2023-05-07T08:50:58;36.70;42.60
32322;DHT22;61553;48.994;8.940;2023-05-07T08:53:23;36.40;42.30
32322;DHT22;61553;48.994;8.940;2023-05-07T08:55:49;34.70;43.60
32322;DHT22;61553;48.994;8.940;2023-05-07T08:58:15;33.70;45.00
32322;DHT22;61553;48.994;8.940;2023-05-07T09:00:41;32.50;46.30
32322;DHT22;61553;48.994;8.940;2023-05-07T09:03:07;32.60;46.90
32322;DHT22;61553;48.994;8.940;2023-05-07T09:05:33;32.80;46.80
32322;DHT22;61553;48.994;8.940;2023-05-07T09:08:00;32.70;46.90
32322;DHT22;61553;48.994;8.940;2023-05-07T09:10:27;32.30;47.50
32322;DHT22;61553;48.994;8.940;2023-05-07T09:12:52;32.10;47.00
32322;DHT22;61553;48.994;8.940;2023-05-07T09:15:18;32.40;46.70
32322;DHT22;61553;48.994;8.940;2023-05-07T09:17:44;32.80;46.70
32322;DHT22;61553;48.994;8.940;2023-05-07T09:20:10;34.00;45.10
32322;DHT22;61553;48.994;8.940;2023-05-07T09:22:39;35.00;43.70
32322;DHT22;61553;48.994;8.940;2023-05-07T09:25:06;35.50;43.40
32322;DHT22;61553;48.994;8.940;2023-05-07T09:27:32;36.20;42.40
32322;DHT22;61553;48.994;8.940;2023-05-07T09:29:58;37.10;41.70
32322;DHT22;61553;48.994;8.940;2023-05-07T09:32:25;37.60;41.00
32322;DHT22;61553;48.994;8.940;2023-05-07T09:34:51;38.60;40.30
32322;DHT22;61553;48.994;8.940;2023-05-07T09:37:16;39.10;40.00
32322;DHT22;61553;48.994;8.940;2023-05-07T09:39:44;38.50;40.30
32322;DHT22;61553;48.994;8.940;2023-05-07T09:42:11;39.80;38.80
32322;DHT22;61553;48.994;8.940;2023-05-07T09:44:45;37.90;40.50
32322;DHT22;61553;48.994;8.940;2023-05-07T09:47:18;38.90;39.70
32322;DHT22;61553;48.994;8.940;2023-05-07T09:49:47;39.10;39.70
32322;DHT22;61553;48.994;8.940;2023-05-07T09:52:13;39.40;39.20
32322;DHT22;61553;48.994;8.940;2023-05-07T09:54:40;38.90;38.90
32322;DHT22;61553;48.994;8.940;2023-05-07T09:57:11;38.60;40.20
32322;DHT22;61553;48.994;8.940;2023-05-07T09:59:38;38.60;40.30
32322;DHT22;61553;48.994;8.940;2023-05-07T10:02:04;37.40;40.30
32322;DHT22;61553;48.994;8.940;2023-05-07T10:04:32;38.10;40.40
32322;DHT22;61553;48.994;8.940;2023-05-07T10:07:00;38.90;39.50
32322;DHT22;61553;48.994;8.940;2023-05-07T10:09:26;39.20;39.00
32322;DHT22;61553;48.994;8.940;2023-05-07T10:11:52;39.00;38.60
32322;DHT22;61553;48.994;8.940;2023-05-07T10:14:21;39.10;38.80
32322;DHT22;61553;48.994;8.940;2023-05-07T10:16:47;38.90;38.50
32322;DHT22;61553;48.994;8.940;2023-05-07T10:19:14;38.40;39.30
32322;DHT22;61553;48.994;8.940;2023-05-07T10:21:44;37.90;39.80
32322;DHT22;61553;48.994;8.940;2023-05-07T10:24:20;37.90;39.50
32322;DHT22;61553;48.994;8.940;2023-05-07T10:26:49;37.20;40.90
32322;DHT22;61553;48.994;8.940;2023-05-07T10:32:33;36.30;41.40
32322;DHT22;61553;48.994;8.940;2023-05-07T10:34:50;35.00;42.30
32322;DHT22;61553;48.994;8.940;2023-05-07T10:37:19;34.30;43.50
32322;DHT22;61553;48.994;8.940;2023-05-07T10:39:45;33.50;45.10
32322;DHT22;61553;48.994;8.940;2023-05-07T10:42:12;32.90;45.10
32322;DHT22;61553;48.994;8.940;2023-05-07T10:44:37;32.20;45.80
32322;DHT22;61553;48.994;8.940;2023-05-07T10:47:11;32.10;46.20
32322;DHT22;61553;48.994;8.940;2023-05-07T10:52:31;31.70;46.70
32322;DHT22;61553;48.994;8.940;2023-05-07T10:57:42;30.80;47.50
32322;DHT22;61553;48.994;8.940;2023-05-07T11:05:28;30.60;48.50
32322;DHT22;61553;48.994;8.940;2023-05-07T11:07:55;30.60;48.00
32322;DHT22;61553;48.994;8.940;2023-05-07T11:10:21;30.20;48.70
32322;DHT22;61553;48.994;8.940;2023-05-07T11:12:48;30.00;49.30
32322;DHT22;61553;48.994;8.940;2023-05-07T11:15:14;29.80;47.90
32322;DHT22;61553;48.994;8.940;2023-05-07T11:17:57;29.60;49.50
32322;DHT22;61553;48.994;8.940;2023-05-07T11:20:55;29.70;49.20
32322;DHT22;61553;48.994;8.940;2023-05-07T11:26:04;29.70;49.90
32322;DHT22;61553;48.994;8.940;2023-05-07T11:28:32;29.60;49.60
32322;DHT22;61553;48.994;8.940;2023-05-07T11:31:02;29.70;49.00
32322;DHT22;61553;48.994;8.940;2023-05-07T11:33:29;29.40;49.30
32322;DHT22;61553;48.994;8.940;2023-05-07T11:35:56;29.80;49.20
32322;DHT22;61553;48.994;8.940;2023-05-07T11:38:22;29.90;49.40
32322;DHT22;61553;48.994;8.940;2023-05-07T11:40:58;29.80;49.60
32322;DHT22;61553;48.994;8.940;2023-05-07T11:43:28;29.80;49.40
32322;DHT22;61553;48.994;8.940;2023-05-07T11:45:53;29.70;49.60
32322;DHT22;61553;48.994;8.940;2023-05-07T11:48:21;29.90;49.40
32322;DHT22;61553;48.994;8.940;2023-05-07T11:51:14;30.00;48.50
32322;DHT22;61553;48.994;8.940;2023-05-07T11:53:44;30.00;49.00
32322;DHT22;61553;48.994;8.940;2023-05-07T11:56:12;29.90;49.00
32322;DHT22;61553;48.994;8.940;2023-05-07T11:58:38;30.10;49.40
32322;DHT22;61553;48.994;8.940;2023-05-07T12:01:06;29.80;48.90
32322;DHT22;61553;48.994;8.940;2023-05-07T12:03:32;29.80;48.60
32322;DHT22;61553;48.994;8.940;2023-05-07T12:05:59;29.80;48.90
32322;DHT22;61553;48.994;8.940;2023-05-07T12:08:25;29.60;49.10
32322;DHT22;61553;48.994;8.940;2023-05-07T12:10:51;29.60;49.20
32322;DHT22;61553;48.994;8.940;2023-05-07T12:13:26;29.60;49.40
32322;DHT22;61553;48.994;8.940;2023-05-07T12:15:56;29.80;48.80
32322;DHT22;61553;48.994;8.940;2023-05-07T12:18:23;29.90;48.60
32322;DHT22;61553;48.994;8.940;2023-05-07T12:20:49;30.10;47.50
32322;DHT22;61553;48.994;8.940;2023-05-07T12:23:16;30.10;46.90
32322;DHT22;61553;48.994;8.940;2023-05-07T12:25:43;30.00;47.50
32322;DHT22;61553;48.994;8.940;2023-05-07T12:28:16;29.30;48.80
32322;DHT22;61553;48.994;8.940;2023-05-07T12:30:43;29.00;49.60
32322;DHT22;61553;48.994;8.940;2023-05-07T12:33:09;28.60;49.00
32322;DHT22;61553;48.994;8.940;2023-05-07T12:35:40;28.20;50.50
32322;DHT22;61553;48.994;8.940;2023-05-07T12:38:11;27.90;51.00
32322;DHT22;61553;48.994;8.940;2023-05-07T12:40:41;28.00;51.00
32322;DHT22;61553;48.994;8.940;2023-05-07T12:43:08;28.20;50.70
32322;DHT22;61553;48.994;8.940;2023-05-07T12:45:41;28.20;50.60
32322;DHT22;61553;48.994;8.940;2023-05-07T12:48:09;28.00;50.30
32322;DHT22;61553;48.994;8.940;2023-05-07T12:50:35;28.00;50.40
32322;DHT22;61553;48.994;8.940;2023-05-07T12:53:03;27.90;51.00
32322;DHT22;61553;48.994;8.940;2023-05-07T12:55:31;27.90;50.50
32322;DHT22;61553;48.994;8.940;2023-05-07T12:58:00;27.60;51.00
32322;DHT22;61553;48.994;8.940;2023-05-07T13:00:37;27.40;52.00
32322;DHT22;61553;48.994;8.940;2023-05-07T13:03:03;27.10;53.20
32322;DHT22;61553;48.994;8.940;2023-05-07T13:05:29;27.00;53.30
32322;DHT22;61553;48.994;8.940;2023-05-07T13:07:55;26.80;53.20
32322;DHT22;61553;48.994;8.940;2023-05-07T13:10:22;26.60;53.70
32322;DHT22;61553;48.994;8.940;2023-05-07T13:12:48;26.30;54.50
32322;DHT22;61553;48.994;8.940;2023-05-07T13:15:14;26.00;56.20
32322;DHT22;61553;48.994;8.940;2023-05-07T13:17:40;25.90;55.70
32322;DHT22;61553;48.994;8.940;2023-05-07T13:20:06;25.70;55.80
32322;DHT22;61553;48.994;8.940;2023-05-07T13:22:33;25.50;57.30
32322;DHT22;61553;48.994;8.940;2023-05-07T13:24:59;25.30;57.40
32322;DHT22;61553;48.994;8.940;2023-05-07T13:27:24;25.20;58.60
32322;DHT22;61553;48.994;8.940;2023-05-07T13:29:50;24.90;61.10
32322;DHT22;61553;48.994;8.940;2023-05-07T13:32:16;24.60;66.20
32322;DHT22;61553;48.994;8.940;2023-05-07T13:34:42;24.20;72.00
32322;DHT22;61553;48.994;8.940;2023-05-07T13:37:07;23.50;78.30
32322;DHT22;61553;48.994;8.940;2023-05-07T13:39:34;22.60;84.30
32322;DHT22;61553;48.994;8.940;2023-05-07T13:42:00;21.90;86.00
32322;DHT22;61553;48.994;8.940;2023-05-07T13:44:26;20.80;93.20
32322;DHT22;61553;48.994;8.940;2023-05-07T13:46:52;20.70;93.40
32322;DHT22;61553;48.994;8.940;2023-05-07T13:49:17;20.60;99.60
32322;DHT22;61553;48.994;8.940;2023-05-07T13:51:43;20.40;99.90
32322;DHT22;61553;48.994;8.940;2023-05-07T13:54:08;20.20;99.90
32322;DHT22;61553;48.994;8.940;2023-05-07T13:56:34;20.20;99.90
32322;DHT22;61553;48.994;8.940;2023-05-07T13:59:00;20.10;99.90
32322;DHT22;61553;48.994;8.940;2023-05-07T14:01:26;19.70;99.90
32322;DHT22;61553;48.994;8.940;2023-05-07T14:03:52;19.30;99.90
32322;DHT22;61553;48.994;8.940;2023-05-07T14:06:17;19.10;99.90
32322;DHT22;61553;48.994;8.940;2023-05-07T14:08:43;18.90;99.90
32322;DHT22;61553;48.994;8.940;2023-05-07T14:11:09;18.70;99.90
32322;DHT22;61553;48.994;8.940;2023-05-07T14:13:34;18.50;99.90
32322;DHT22;61553;48.994;8.940;2023-05-07T14:16:00;18.10;99.90
32322;DHT22;61553;48.994;8.940;2023-05-07T14:18:26;17.80;99.90
32322;DHT22;61553;48.994;8.940;2023-05-07T14:20:52;17.70;99.90
32322;DHT22;61553;48.994;8.940;2023-05-07T14:23:17;17.40;99.90
32322;DHT22;61553;48.994;8.940;2023-05-07T14:25:45;17.20;99.90
32322;DHT22;61553;48.994;8.940;2023-05-07T14:28:13;17.10;99.90
32322;DHT22;61553;48.994;8.940;2023-05-07T14:30:39;17.20;99.90
32322;DHT22;61553;48.994;8.940;2023-05-07T14:33:04;17.10;99.90
32322;DHT22;61553;48.994;8.940;2023-05-07T14:35:30;17.00;99.90
32322;DHT22;61553;48.994;8.940;2023-05-07T14:37:55;16.80;99.90
32322;DHT22;61553;48.994;8.940;2023-05-07T14:40:21;16.80;99.90
32322;DHT22;61553;48.994;8.940;2023-05-07T14:42:47;16.80;99.90
32322;DHT22;61553;48.994;8.940;2023-05-07T14:45:12;16.70;99.90
32322;DHT22;61553;48.994;8.940;2023-05-07T14:47:38;16.70;99.90
32322;DHT22;61553;48.994;8.940;2023-05-07T14:50:04;16.70;99.90
32322;DHT22;61553;48.994;8.940;2023-05-07T14:52:30;16.80;99.90
32322;DHT22;61553;48.994;8.940;2023-05-07T14:54:55;16.80;99.90
32322;DHT22;61553;48.994;8.940;2023-05-07T14:57:21;16.90;99.90
32322;DHT22;61553;48.994;8.940;2023-05-07T14:59:47;16.90;99.90
32322;DHT22;61553;48.994;8.940;2023-05-07T15:02:13;16.90;99.90
32322;DHT22;61553;48.994;8.940;2023-05-07T15:04:38;17.00;99.90
32322;DHT22;61553;48.994;8.940;2023-05-07T15:07:11;17.10;99.90
32322;DHT22;61553;48.994;8.940;2023-05-07T15:09:37;17.20;99.90
32322;DHT22;61553;48.994;8.940;2023-05-07T15:12:02;17.30;99.90
32322;DHT22;61553;48.994;8.940;2023-05-07T15:14:29;17.40;99.90
32322;DHT22;61553;48.994;8.940;2023-05-07T15:16:54;17.60;99.90
32322;DHT22;61553;48.994;8.940;2023-05-07T15:19:20;17.70;99.90
32322;DHT22;61553;48.994;8.940;2023-05-07T15:21:47;17.70;99.90
32322;DHT22;61553;48.994;8.940;2023-05-07T15:24:13;17.80;99.90
32322;DHT22;61553;48.994;8.940;2023-05-07T15:26:38;17.90;99.90
32322;DHT22;61553;48.994;8.940;2023-05-07T15:29:04;18.10;99.90
32322;DHT22;61553;48.994;8.940;2023-05-07T15:31:35;18.20;99.90
32322;DHT22;61553;48.994;8.940;2023-05-07T15:34:02;18.30;99.90
32322;DHT22;61553;48.994;8.940;2023-05-07T15:36:27;18.30;99.90
32322;DHT22;61553;48.994;8.940;2023-05-07T15:38:53;18.10;99.90
32322;DHT22;61553;48.994;8.940;2023-05-07T15:41:19;18.10;99.90
32322;DHT22;61553;48.994;8.940;2023-05-07T15:43:49;18.00;99.90